Time;durP1;ratioP1;P1;durP2;ratioP2;P2;SDS_P1;SDS_P2;PMS_P1;PMS_P2;Temp;Humidity;BMP_temperature;BMP_pressure;BME280_temperature;BME280_humidity;BME280_pressure;Samples;Min_cycle;Max_cycle;Signal;HPM_P1;HPM_P2
2022/09/22 00:00:31;;;;;;;7.88;4.20;;;8.50;99.90;;;;;;5106501;28;20032;-74
2022/09/22 00:02:58;;;;;;;4.68;3.45;;;8.40;99.90;;;;;;5109386;28;20035;-74
2022/09/22 00:05:24;;;;;;;4.78;3.70;;;8.40;99.90;;;;;;5112336;28;20085;-74
2022/09/22 00:07:52;;;;;;;7.97;4.15;;;8.30;99.90;;;;;;5105172;28;20043;-74
2022/09/22 00:10:20;;;;;;;5.25;3.50;;;8.30;99.90;;;;;;5110896;28;20126;-74
2022/09/22 00:12:47;;;;;;;6.25;4.10;;;8.40;99.90;;;;;;5111835;28;20035;-74
2022/09/22 00:15:13;;;;;;;6.38;4.22;;;8.40;99.90;;;;;;5106530;28;20042;-74
2022/09/22 00:17:38;;;;;;;8.35;4.50;;;8.40;99.90;;;;;;5103246;28;20043;-74
2022/09/22 00:20:04;;;;;;;7.22;3.95;;;8.40;99.90;;;;;;5112187;28;20036;-74
2022/09/22 00:22:30;;;;;;;5.95;4.10;;;8.40;99.90;;;;;;5105821;28;20494;-74
2022/09/22 00:24:55;;;;;;;6.05;3.80;;;8.30;99.90;;;;;;5107710;28;20043;-73
2022/09/22 00:27:23;;;;;;;4.88;3.90;;;8.30;99.90;;;;;;5105725;28;20096;-74
2022/09/22 00:29:50;;;;;;;5.03;3.95;;;8.30;99.90;;;;;;5124678;27;20047;-74
2022/09/22 00:32:17;;;;;;;5.53;3.83;;;8.30;99.90;;;;;;5104358;28;20114;-74
2022/09/22 00:34:43;;;;;;;4.00;3.28;;;8.20;99.90;;;;;;5109813;28;20097;-71
2022/09/22 00:37:08;;;;;;;5.35;3.85;;;8.20;99.90;;;;;;5104155;28;20040;-74
2022/09/22 00:39:34;;;;;;;4.47;3.33;;;8.20;99.90;;;;;;5104169;28;20115;-73
2022/09/22 00:41:59;;;;;;;4.22;3.50;;;8.10;99.90;;;;;;5110871;28;20031;-74
2022/09/22 00:44:25;;;;;;;4.25;3.08;;;8.10;99.90;;;;;;5102389;28;20064;-74
2022/09/22 00:46:58;;;;;;;4.78;3.55;;;8.10;99.90;;;;;;5104154;28;20572;-74
2022/09/22 00:49:36;;;;;;;4.67;3.30;;;8.00;99.90;;;;;;5103350;28;20035;-71
2022/09/22 00:52:02;;;;;;;4.35;3.22;;;8.00;99.90;;;;;;5109844;28;20050;-74
2022/09/22 00:54:28;;;;;;;5.97;3.08;;;8.00;99.90;;;;;;5095186;28;20036;-74
2022/09/22 00:57:10;;;;;;;5.60;3.15;;;8.00;99.90;;;;;;5103779;28;20035;-74
2022/09/22 00:59:36;;;;;;;3.70;2.90;;;8.00;99.90;;;;;;5110031;28;20100;-74
2022/09/22 01:02:02;;;;;;;6.05;3.28;;;8.00;99.90;;;;;;5109934;28;20489;-74
2022/09/22 01:04:28;;;;;;;3.88;3.28;;;8.00;99.90;;;;;;5111060;28;20492;-74
2022/09/22 01:06:56;;;;;;;3.90;2.80;;;7.90;99.90;;;;;;5101822;28;20137;-75
2022/09/22 01:09:22;;;;;;;4.28;3.05;;;7.90;99.90;;;;;;5105198;28;20040;-74
2022/09/22 01:11:48;;;;;;;3.63;2.90;;;7.90;99.90;;;;;;5108495;28;20047;-74
2022/09/22 01:14:38;;;;;;;6.72;3.10;;;7.90;99.90;;;;;;5100447;28;20035;-74
2022/09/22 01:17:23;;;;;;;3.88;2.80;;;8.00;99.90;;;;;;5099963;28;20035;-74
2022/09/22 01:20:22;;;;;;;4.18;2.88;;;8.00;99.90;;;;;;5101647;28;20122;-74
2022/09/22 01:23:27;;;;;;;4.70;2.80;;;7.90;99.90;;;;;;5108491;28;20038;-74
2022/09/22 01:26:43;;;;;;;5.05;2.88;;;7.90;99.90;;;;;;5111887;28;20439;-74
2022/09/22 01:29:33;;;;;;;4.63;2.83;;;7.90;99.90;;;;;;5067274;28;20039;-74
2022/09/22 01:32:16;;;;;;;4.38;2.78;;;7.90;99.90;;;;;;5106362;28;20039;-74
2022/09/22 01:34:54;;;;;;;4.15;2.63;;;7.90;99.90;;;;;;5107448;28;20070;-73
2022/09/22 01:37:28;;;;;;;4.55;2.50;;;7.80;99.90;;;;;;5102059;28;20040;-74
2022/09/22 01:39:59;;;;;;;3.72;2.33;;;7.80;99.90;;;;;;5101703;28;20031;-73
2022/09/22 01:42:36;;;;;;;3.45;1.70;;;7.80;99.90;;;;;;5103799;28;20032;-74
2022/09/22 01:45:07;;;;;;;2.03;1.27;;;7.70;99.90;;;;;;5100655;28;20105;-74
2022/09/22 01:47:47;;;;;;;2.70;1.33;;;7.70;99.90;;;;;;5077782;28;20038;-73
2022/09/22 01:50:27;;;;;;;1.52;1.30;;;7.70;99.90;;;;;;5103172;28;20119;-74
2022/09/22 01:52:56;;;;;;;3.30;1.50;;;7.70;99.90;;;;;;5106483;28;20035;-73
2022/09/22 01:55:30;;;;;;;2.10;1.60;;;7.60;99.90;;;;;;5102646;28;20035;-74
2022/09/22 01:58:19;;;;;;;3.70;1.65;;;7.60;99.90;;;;;;5099764;28;20126;-73
2022/09/22 02:00:59;;;;;;;3.10;1.70;;;7.60;99.90;;;;;;5102781;28;20028;-73
2022/09/22 02:03:34;;;;;;;4.22;1.88;;;7.60;99.90;;;;;;5106918;28;20382;-73
2022/09/22 02:06:07;;;;;;;3.20;1.90;;;7.50;99.90;;;;;;5082900;28;20038;-74
2022/09/22 02:08:44;;;;;;;3.85;2.40;;;7.50;99.90;;;;;;5101376;28;20049;-74
2022/09/22 02:11:15;;;;;;;2.78;2.08;;;7.40;99.90;;;;;;5108599;28;20040;-73
2022/09/22 02:13:42;;;;;;;3.55;1.98;;;7.40;99.90;;;;;;5107439;28;20389;-74
2022/09/22 02:16:10;;;;;;;4.20;2.05;;;7.40;99.90;;;;;;5105099;28;20100;-74
2022/09/22 02:19:00;;;;;;;3.60;1.88;;;7.40;99.90;;;;;;5091395;28;20051;-74
2022/09/22 02:21:26;;;;;;;3.10;2.50;;;7.30;99.90;;;;;;5106457;28;20032;-74
2022/09/22 02:23:52;;;;;;;4.13;2.67;;;7.30;99.90;;;;;;5106901;28;20071;-74
2022/09/22 02:26:22;;;;;;;4.72;2.17;;;7.30;99.90;;;;;;5106338;28;20519;-72
2022/09/22 02:28:52;;;;;;;4.45;2.08;;;7.30;99.90;;;;;;5100661;28;20118;-74
2022/09/22 02:31:20;;;;;;;4.38;2.10;;;7.30;99.90;;;;;;5107884;28;20039;-73
2022/09/22 02:33:47;;;;;;;2.63;1.90;;;7.30;99.90;;;;;;5101593;28;20078;-73
2022/09/22 02:36:23;;;;;;;2.50;2.00;;;7.30;99.90;;;;;;5110914;28;20142;-74
2022/09/22 02:39:09;;;;;;;2.53;1.98;;;7.30;99.90;;;;;;5101147;28;20134;-74
2022/09/22 02:41:46;;;;;;;2.67;1.58;;;7.30;99.90;;;;;;5098904;28;20063;-74
2022/09/22 02:44:29;;;;;;;3.92;1.50;;;7.30;99.90;;;;;;5104816;28;20080;-74
2022/09/22 02:47:12;;;;;;;3.90;1.40;;;7.20;99.90;;;;;;5098143;28;20447;-74
2022/09/22 02:49:39;;;;;;;1.70;1.35;;;7.20;99.90;;;;;;5105110;28;20053;-74
2022/09/22 02:52:11;;;;;;;2.47;1.50;;;7.10;99.90;;;;;;5092292;28;20092;-71
2022/09/22 02:54:38;;;;;;;2.55;1.95;;;7.10;99.90;;;;;;5106354;28;20046;-74
2022/09/22 02:57:04;;;;;;;2.72;1.65;;;7.10;99.90;;;;;;5102007;28;20086;-74
2022/09/22 02:59:30;;;;;;;4.22;1.95;;;7.00;99.90;;;;;;5081562;28;20051;-74
2022/09/22 03:01:55;;;;;;;3.47;1.75;;;7.00;99.90;;;;;;5109070;28;20048;-74
2022/09/22 03:04:21;;;;;;;2.95;1.90;;;7.00;99.90;;;;;;5101767;28;20024;-74
2022/09/22 03:06:46;;;;;;;3.78;1.80;;;6.90;99.90;;;;;;5101218;28;20059;-72
2022/09/22 03:09:14;;;;;;;1.95;1.40;;;6.90;99.90;;;;;;5098637;28;20035;-74
2022/09/22 03:11:40;;;;;;;3.42;1.80;;;6.90;99.90;;;;;;5109726;28;20119;-73
2022/09/22 03:14:05;;;;;;;3.08;1.50;;;6.90;99.90;;;;;;5106701;28;20122;-73
2022/09/22 03:16:31;;;;;;;6.72;1.50;;;6.80;99.90;;;;;;5084857;28;20489;-73
2022/09/22 03:18:57;;;;;;;3.63;1.58;;;6.80;99.90;;;;;;5099944;28;20093;-74
2022/09/22 03:21:22;;;;;;;3.15;1.92;;;6.80;99.90;;;;;;5112155;28;20040;-74
2022/09/22 03:23:48;;;;;;;3.05;2.03;;;6.70;99.90;;;;;;5109203;28;20131;-74
2022/09/22 03:26:13;;;;;;;2.58;1.60;;;6.70;99.90;;;;;;5113974;28;20035;-74
2022/09/22 03:28:39;;;;;;;2.80;1.83;;;6.60;99.90;;;;;;5082361;28;20453;-73
2022/09/22 03:31:04;;;;;;;3.05;1.83;;;6.60;99.90;;;;;;5104822;28;20422;-74
2022/09/22 03:33:30;;;;;;;2.92;2.00;;;6.70;99.90;;;;;;5105738;28;20500;-74
2022/09/22 03:35:55;;;;;;;2.92;2.15;;;6.60;99.90;;;;;;5109281;28;20044;-74
2022/09/22 03:38:21;;;;;;;3.67;2.03;;;6.70;99.90;;;;;;5104964;28;20032;-74
2022/09/22 03:40:51;;;;;;;2.92;2.30;;;6.60;99.90;;;;;;5111825;28;20036;-74
2022/09/22 03:43:17;;;;;;;3.30;2.22;;;6.60;99.90;;;;;;5094332;28;20031;-74
2022/09/22 03:45:43;;;;;;;3.72;2.42;;;6.60;99.90;;;;;;5106122;28;20069;-74
2022/09/22 03:48:09;;;;;;;2.75;1.85;;;6.60;99.90;;;;;;5107498;28;20032;-74
2022/09/22 03:50:34;;;;;;;2.80;1.88;;;6.60;99.90;;;;;;5105723;28;20079;-74
2022/09/22 03:53:00;;;;;;;6.20;2.10;;;6.60;99.90;;;;;;5111012;28;20043;-74
2022/09/22 03:55:25;;;;;;;2.83;2.13;;;6.60;99.90;;;;;;5109996;28;20047;-74
2022/09/22 03:57:51;;;;;;;2.63;1.90;;;6.60;99.90;;;;;;5101838;28;20032;-74
2022/09/22 04:00:16;;;;;;;3.03;1.95;;;6.60;99.90;;;;;;5107593;28;20036;-74
2022/09/22 04:02:42;;;;;;;8.35;2.28;;;6.60;99.90;;;;;;5111085;28;20031;-74
2022/09/22 04:05:09;;;;;;;5.32;1.98;;;6.50;99.90;;;;;;5090392;28;20032;-74
2022/09/22 04:07:35;;;;;;;3.67;2.00;;;6.50;99.90;;;;;;5103871;28;20048;-74
2022/09/22 04:10:01;;;;;;;4.22;2.42;;;6.50;99.90;;;;;;5104142;28;20104;-73
2022/09/22 04:12:27;;;;;;;4.93;2.38;;;6.50;99.90;;;;;;5109164;28;20035;-74
2022/09/22 04:14:52;;;;;;;4.75;2.47;;;6.50;99.90;;;;;;5112081;28;20074;-74
2022/09/22 04:17:19;;;;;;;4.10;2.10;;;6.50;99.90;;;;;;5107171;28;20071;-73
2022/09/22 04:19:45;;;;;;;5.28;2.22;;;6.50;99.90;;;;;;5090215;28;20044;-74
2022/09/22 04:22:11;;;;;;;2.35;1.70;;;6.50;99.90;;;;;;5104139;28;20074;-72
2022/09/22 04:24:37;;;;;;;3.20;1.98;;;6.50;99.90;;;;;;5109052;28;20066;-74
2022/09/22 04:27:03;;;;;;;3.15;2.10;;;6.50;99.90;;;;;;5085530;28;20393;-74
2022/09/22 04:29:28;;;;;;;3.03;1.92;;;6.50;99.90;;;;;;5106871;28;20106;-74
2022/09/22 04:31:54;;;;;;;3.55;1.85;;;6.50;99.90;;;;;;5107001;28;20111;-73
2022/09/22 04:34:19;;;;;;;3.17;1.77;;;6.40;99.90;;;;;;5090102;28;20111;-73
2022/09/22 04:36:45;;;;;;;2.35;1.63;;;6.40;99.90;;;;;;5097237;28;20267;-74
2022/09/22 04:39:10;;;;;;;2.58;1.50;;;6.40;99.90;;;;;;5102026;28;20036;-74
2022/09/22 04:41:36;;;;;;;5.00;1.45;;;6.30;99.90;;;;;;5108837;28;20044;-72
2022/09/22 04:44:01;;;;;;;1.70;1.27;;;6.30;99.90;;;;;;5083918;28;20047;-72
2022/09/22 04:46:27;;;;;;;1.73;1.48;;;6.20;99.90;;;;;;5104491;28;20574;-73
2022/09/22 04:48:53;;;;;;;4.25;1.92;;;6.20;99.90;;;;;;5097357;28;20406;-73
2022/09/22 04:51:18;;;;;;;2.67;1.80;;;6.20;99.90;;;;;;5105450;28;20043;-74
2022/09/22 04:53:44;;;;;;;4.97;2.10;;;6.20;99.90;;;;;;5107490;28;20067;-72
2022/09/22 04:56:09;;;;;;;3.83;2.05;;;6.20;99.90;;;;;;5085061;28;20040;-73
2022/09/22 04:58:35;;;;;;;3.88;1.95;;;6.20;99.90;;;;;;5106680;28;20040;-73
2022/09/22 05:01:02;;;;;;;5.75;2.47;;;6.10;99.90;;;;;;5103082;28;20489;-73
2022/09/22 05:03:28;;;;;;;3.72;2.03;;;6.20;99.90;;;;;;5109910;28;20039;-73
2022/09/22 05:05:54;;;;;;;3.08;2.13;;;6.10;99.90;;;;;;5112528;28;20042;-74
2022/09/22 05:08:19;;;;;;;5.63;2.10;;;6.10;99.90;;;;;;5106772;28;20039;-73
2022/09/22 05:10:45;;;;;;;4.20;2.13;;;6.10;99.90;;;;;;5109876;28;20449;-73
2022/09/22 05:13:12;;;;;;;2.88;1.90;;;6.00;99.90;;;;;;5109391;28;20032;-73
2022/09/22 05:15:38;;;;;;;3.72;2.40;;;6.00;99.90;;;;;;5111125;28;20046;-73
2022/09/22 05:18:03;;;;;;;2.92;2.13;;;6.00;99.90;;;;;;5106473;28;20136;-74
2022/09/22 05:20:29;;;;;;;3.75;2.35;;;6.10;99.90;;;;;;5109044;28;20065;-73
2022/09/22 05:22:54;;;;;;;3.53;2.20;;;6.00;99.90;;;;;;5105371;28;20085;-74
2022/09/22 05:25:20;;;;;;;2.88;2.08;;;6.00;99.90;;;;;;5107823;28;20085;-74
2022/09/22 05:27:48;;;;;;;7.40;2.40;;;6.00;99.90;;;;;;5100330;28;20500;-73
2022/09/22 05:30:13;;;;;;;2.85;2.20;;;6.00;99.90;;;;;;5106369;28;20040;-73
2022/09/22 05:32:44;;;;;;;2.80;1.95;;;6.00;99.90;;;;;;5084980;28;20036;-72
2022/09/22 05:35:11;;;;;;;3.33;1.90;;;6.00;99.90;;;;;;5107186;28;20043;-73
2022/09/22 05:37:37;;;;;;;3.17;1.80;;;6.00;99.90;;;;;;5087464;28;20048;-73
2022/09/22 05:40:03;;;;;;;2.83;1.60;;;6.00;99.90;;;;;;5103040;28;20035;-73
2022/09/22 05:42:28;;;;;;;5.10;1.70;;;6.00;99.90;;;;;;5108497;28;20036;-72
2022/09/22 05:44:54;;;;;;;3.45;1.50;;;6.00;99.90;;;;;;5104526;28;20107;-73
2022/09/22 05:47:19;;;;;;;2.72;1.40;;;6.00;99.90;;;;;;5085044;28;20473;-72
2022/09/22 05:49:45;;;;;;;5.85;1.70;;;6.10;99.90;;;;;;5106188;28;20500;-74
2022/09/22 05:52:10;;;;;;;6.35;1.58;;;6.10;99.90;;;;;;5100725;28;20500;-73
2022/09/22 05:54:36;;;;;;;2.83;1.80;;;6.20;99.90;;;;;;5100633;28;20437;-73
2022/09/22 05:57:02;;;;;;;2.28;1.60;;;6.20;99.90;;;;;;5109881;28;20051;-73
2022/09/22 05:59:27;;;;;;;2.60;1.60;;;6.20;99.90;;;;;;5106863;28;20047;-74
2022/09/22 06:01:53;;;;;;;3.38;1.77;;;6.20;99.90;;;;;;5107797;28;20036;-74
2022/09/22 06:04:18;;;;;;;2.25;1.77;;;6.30;99.90;;;;;;5101139;28;20089;-72
2022/09/22 06:06:44;;;;;;;2.03;1.52;;;6.30;99.90;;;;;;5105441;28;20036;-73
2022/09/22 06:09:09;;;;;;;2.85;1.75;;;6.40;99.90;;;;;;5101157;28;20055;-74
2022/09/22 06:11:35;;;;;;;4.25;2.08;;;6.40;99.90;;;;;;5108280;28;20036;-73
2022/09/22 06:14:00;;;;;;;3.10;2.10;;;6.50;99.90;;;;;;5093045;28;20035;-73
2022/09/22 06:16:26;;;;;;;3.83;2.22;;;6.50;99.90;;;;;;5102805;28;20043;-73
2022/09/22 06:18:51;;;;;;;4.13;2.45;;;6.60;99.90;;;;;;5107138;28;20032;-74
2022/09/22 06:21:17;;;;;;;5.03;2.90;;;6.70;99.90;;;;;;5103278;28;20089;-74
2022/09/22 06:23:43;;;;;;;6.18;2.83;;;6.70;99.90;;;;;;5093243;28;20451;-73
2022/09/22 06:26:09;;;;;;;5.38;2.80;;;6.80;99.90;;;;;;5106237;28;20028;-73
2022/09/22 06:28:35;;;;;;;4.30;2.75;;;6.90;99.90;;;;;;5089374;28;20683;-72
2022/09/22 06:31:01;;;;;;;4.95;2.75;;;7.00;99.90;;;;;;5103185;28;20123;-73
2022/09/22 06:33:27;;;;;;;5.22;3.17;;;7.00;99.90;;;;;;5091953;28;20044;-73
2022/09/22 06:35:53;;;;;;;5.35;3.75;;;7.10;99.90;;;;;;5099942;28;20051;-73
2022/09/22 06:38:19;;;;;;;8.40;5.28;;;7.20;99.90;;;;;;5103237;28;20035;-73
2022/09/22 06:40:45;;;;;;;6.85;5.18;;;7.30;99.90;;;;;;5107991;28;20396;-73
2022/09/22 06:43:21;;;;;;;7.43;5.22;;;7.40;99.90;;;;;;5103147;28;20031;-73
2022/09/22 06:45:47;;;;;;;7.50;5.90;;;7.50;99.90;;;;;;5107034;28;20063;-74
2022/09/22 06:48:13;;;;;;;8.55;5.97;;;7.60;99.90;;;;;;5108141;28;20506;-74
2022/09/22 06:50:39;;;;;;;9.35;5.75;;;7.70;99.90;;;;;;5103059;28;20031;-74
2022/09/22 06:53:06;;;;;;;7.68;5.97;;;7.80;99.90;;;;;;5100019;28;20067;-74
2022/09/22 06:55:32;;;;;;;8.20;6.00;;;7.90;99.90;;;;;;5093790;28;20047;-73
2022/09/22 06:58:00;;;;;;;9.13;6.15;;;8.00;99.90;;;;;;5093408;28;20039;-75
2022/09/22 07:00:30;;;;;;;9.32;6.78;;;8.00;99.90;;;;;;5107805;28;20043;-76
2022/09/22 07:03:14;;;;;;;12.57;6.65;;;8.20;99.90;;;;;;5104559;28;20048;-76
2022/09/22 07:05:42;;;;;;;10.18;6.70;;;8.30;99.90;;;;;;5083005;28;20051;-76
2022/09/22 07:08:08;;;;;;;9.07;6.90;;;8.50;99.90;;;;;;5104272;28;20397;-76
2022/09/22 07:10:36;;;;;;;8.73;7.10;;;8.60;99.90;;;;;;5101108;28;20048;-76
2022/09/22 07:13:05;;;;;;;10.52;6.80;;;8.70;99.90;;;;;;5087033;28;20051;-77
2022/09/22 07:15:32;;;;;;;8.63;7.25;;;8.90;99.90;;;;;;5108855;28;20065;-77
2022/09/22 07:17:58;;;;;;;8.77;7.28;;;9.00;99.90;;;;;;5086761;28;20071;-77
2022/09/22 07:20:23;;;;;;;11.13;7.45;;;9.20;99.90;;;;;;5107252;28;20078;-77
2022/09/22 07:22:49;;;;;;;10.00;7.18;;;9.40;99.90;;;;;;5105818;28;20489;-77
2022/09/22 07:25:15;;;;;;;12.40;7.53;;;9.50;99.90;;;;;;5076919;28;20040;-77
2022/09/22 07:27:41;;;;;;;8.43;6.25;;;9.70;99.90;;;;;;5093360;28;20123;-77
2022/09/22 07:30:09;;;;;;;9.55;6.78;;;9.90;99.90;;;;;;5106465;28;20126;-76
2022/09/22 07:32:34;;;;;;;9.85;6.47;;;10.00;99.90;;;;;;5103891;28;20044;-77
2022/09/22 07:35:01;;;;;;;11.82;6.70;;;10.20;99.90;;;;;;5088958;28;20390;-77
2022/09/22 07:37:31;;;;;;;11.82;6.85;;;10.30;99.90;;;;;;5096743;28;20036;-77
2022/09/22 07:39:59;;;;;;;11.55;7.65;;;10.50;99.90;;;;;;5091733;28;20039;-77
2022/09/22 07:42:24;;;;;;;11.32;7.72;;;10.60;99.90;;;;;;5098379;28;20081;-76
2022/09/22 07:50:18;;;;;;;9.95;6.70;;;11.10;99.90;;;;;;5097633;28;20044;-76
2022/09/22 07:52:50;;;;;;;10.77;7.00;;;11.10;99.90;;;;;;5090799;28;20051;-76
2022/09/22 07:55:15;;;;;;;10.45;6.72;;;11.20;99.90;;;;;;5089496;28;20054;-76
2022/09/22 07:57:41;;;;;;;10.27;6.88;;;11.30;99.90;;;;;;5089368;28;20123;-75
2022/09/22 08:00:07;;;;;;;7.72;6.55;;;11.50;99.90;;;;;;5102603;28;20133;-76
2022/09/22 08:02:33;;;;;;;13.35;7.07;;;11.60;99.90;;;;;;5106378;28;20031;-76
2022/09/22 08:05:01;;;;;;;8.65;7.03;;;11.70;99.90;;;;;;5081814;28;20119;-75
2022/09/22 08:07:30;;;;;;;10.32;6.85;;;11.80;99.90;;;;;;5105620;28;20536;-76
2022/09/22 08:09:56;;;;;;;10.10;6.80;;;11.90;99.90;;;;;;5108650;28;20461;-76
2022/09/22 08:12:21;;;;;;;8.68;6.43;;;12.10;99.90;;;;;;5106687;28;20118;-75
2022/09/22 08:14:47;;;;;;;9.73;6.60;;;12.20;99.90;;;;;;5105599;28;20031;-75
2022/09/22 08:17:12;;;;;;;10.00;6.35;;;12.30;99.90;;;;;;5107221;28;20039;-76
2022/09/22 08:19:38;;;;;;;11.07;6.25;;;12.40;99.90;;;;;;5104884;28;20042;-76
2022/09/22 08:22:03;;;;;;;9.18;5.78;;;12.50;99.90;;;;;;5088002;28;20035;-75
2022/09/22 08:24:29;;;;;;;8.77;5.60;;;12.50;99.90;;;;;;5100716;28;20044;-75
2022/09/22 08:26:55;;;;;;;8.70;6.07;;;12.60;99.90;;;;;;5091709;28;20662;-75
2022/09/22 08:29:20;;;;;;;8.23;5.38;;;12.70;99.90;;;;;;5075088;28;20159;-76
2022/09/22 08:31:48;;;;;;;10.70;5.35;;;12.90;99.90;;;;;;5091810;28;20130;-75
2022/09/22 08:34:15;;;;;;;7.38;4.80;;;12.90;99.90;;;;;;5092059;28;20063;-74
2022/09/22 08:36:45;;;;;;;7.30;4.85;;;13.00;99.90;;;;;;5102485;28;20119;-76
2022/09/22 08:39:10;;;;;;;6.72;5.18;;;13.10;99.90;;;;;;5107666;28;20040;-76
2022/09/22 08:41:47;;;;;;;8.15;4.63;;;13.20;99.90;;;;;;5112710;28;20036;-76
2022/09/22 08:44:24;;;;;;;6.20;4.68;;;13.20;99.90;;;;;;5112803;28;20504;-75
2022/09/22 08:46:53;;;;;;;8.55;5.10;;;13.30;99.90;;;;;;5095324;28;20081;-76
2022/09/22 08:52:14;;;;;;;6.63;3.95;;;13.40;99.90;;;;;;5105249;28;20052;-75
2022/09/22 08:54:41;;;;;;;6.28;3.97;;;13.50;99.90;;;;;;5107484;28;20493;-75
2022/09/22 08:57:33;;;;;;;5.78;3.92;;;13.60;99.90;;;;;;5092151;28;20131;-75
2022/09/22 09:00:09;;;;;;;5.95;3.47;;;13.70;99.90;;;;;;5092102;28;20047;-75
2022/09/22 09:03:03;;;;;;;5.90;3.47;;;13.70;99.90;;;;;;5091919;28;20036;-76
2022/09/22 09:05:50;;;;;;;5.57;3.60;;;13.80;99.90;;;;;;5078931;28;20044;-75
2022/09/22 09:08:31;;;;;;;6.22;3.47;;;13.90;99.90;;;;;;5102059;28;20078;-75
2022/09/22 09:11:18;;;;;;;7.28;3.65;;;14.00;99.90;;;;;;5076703;28;20039;-75
2022/09/22 09:13:52;;;;;;;7.78;3.17;;;14.00;99.90;;;;;;5102686;28;20057;-76
2022/09/22 09:16:51;;;;;;;8.88;3.25;;;14.10;99.90;;;;;;5099472;28;20043;-75
2022/09/22 09:19:42;;;;;;;5.63;3.50;;;14.20;99.90;;;;;;5103794;28;20063;-76
2022/09/22 09:22:26;;;;;;;6.90;3.00;;;14.20;99.90;;;;;;5092607;28;20087;-76
2022/09/22 09:25:02;;;;;;;5.10;2.88;;;14.30;99.90;;;;;;5102214;28;20032;-75
2022/09/22 09:27:33;;;;;;;5.20;2.85;;;14.40;99.90;;;;;;5100218;28;20404;-75
2022/09/22 09:30:06;;;;;;;5.78;3.05;;;14.40;99.90;;;;;;5100314;28;20055;-76
2022/09/22 09:32:52;;;;;;;3.72;2.83;;;14.50;99.90;;;;;;5088569;28;20035;-75
2022/09/22 09:35:25;;;;;;;3.45;2.35;;;14.50;99.90;;;;;;5103182;28;20032;-75
2022/09/22 09:37:53;;;;;;;5.00;2.60;;;14.60;99.90;;;;;;5103913;28;20036;-76
2022/09/22 09:40:20;;;;;;;5.57;2.72;;;14.70;99.90;;;;;;5101272;28;20497;-76
2022/09/22 09:42:55;;;;;;;5.28;2.65;;;14.70;99.90;;;;;;5105321;28;20050;-76
2022/09/22 09:45:27;;;;;;;4.32;2.75;;;14.80;99.90;;;;;;5110019;28;20101;-75
2022/09/22 09:48:31;;;;;;;5.70;3.13;;;14.80;99.90;;;;;;5103501;28;20059;-75
2022/09/22 09:51:02;;;;;;;6.20;2.38;;;14.90;99.90;;;;;;5087545;28;20047;-75
2022/09/22 09:53:33;;;;;;;7.63;2.40;;;15.00;99.90;;;;;;5072213;28;20050;-76
2022/09/22 09:55:59;;;;;;;5.93;2.33;;;15.10;99.90;;;;;;5089136;28;20101;-75
2022/09/22 10:01:12;;;;;;;7.50;3.65;;;15.20;99.90;;;;;;5103389;28;20039;-76
2022/09/22 10:03:46;;;;;;;4.88;2.63;;;15.30;99.90;;;;;;5095757;28;20062;-76
2022/09/22 10:06:12;;;;;;;6.25;2.97;;;15.30;99.90;;;;;;5073594;28;20032;-76
2022/09/22 10:08:56;;;;;;;8.23;3.42;;;15.40;99.90;;;;;;5101013;28;20551;-76
2022/09/22 10:11:32;;;;;;;5.22;3.08;;;15.50;99.90;;;;;;5108075;28;20130;-75
2022/09/22 10:13:58;;;;;;;4.60;3.10;;;15.60;99.90;;;;;;5101320;28;20519;-75
2022/09/22 10:16:27;;;;;;;7.03;3.20;;;15.60;99.90;;;;;;5105247;28;20036;-74
2022/09/22 10:19:03;;;;;;;6.43;3.08;;;15.70;99.90;;;;;;5103351;28;20078;-75
2022/09/22 10:21:29;;;;;;;6.07;3.20;;;15.80;99.90;;;;;;5098880;28;20043;-73
2022/09/22 10:23:57;;;;;;;7.60;3.15;;;15.80;99.90;;;;;;5106749;28;20035;-75
2022/09/22 10:26:26;;;;;;;5.10;2.90;;;15.90;99.90;;;;;;5091322;28;20386;-75
2022/09/22 10:29:13;;;;;;;4.53;2.72;;;16.00;99.90;;;;;;5105450;28;20104;-74
2022/09/22 10:31:40;;;;;;;6.72;3.50;;;16.10;99.90;;;;;;5104085;28;20035;-73
2022/09/22 10:34:30;;;;;;;6.93;2.65;;;16.20;99.90;;;;;;5104247;28;20503;-78
2022/09/22 10:36:57;;;;;;;7.10;3.42;;;16.20;99.90;;;;;;5103702;28;20043;-72
2022/09/22 10:39:44;;;;;;;5.93;2.58;;;16.30;99.90;;;;;;5099637;28;20048;-73
2022/09/22 10:42:33;;;;;;;6.13;2.90;;;16.40;99.90;;;;;;5106107;28;20027;-73
2022/09/22 10:45:21;;;;;;;4.22;2.45;;;16.40;99.90;;;;;;5089665;28;20032;-74
2022/09/22 10:48:17;;;;;;;5.35;2.65;;;16.50;99.90;;;;;;5090029;28;20382;-74
2022/09/22 10:51:11;;;;;;;5.95;2.60;;;16.60;99.90;;;;;;5095110;28;20112;-74
2022/09/22 10:53:49;;;;;;;;;;;16.70;99.90;;;;;;5108690;28;20036;-74
2022/09/22 10:56:23;;;;;;;6.22;2.67;;;16.70;99.90;;;;;;5098091;28;20297;-73
2022/09/22 10:58:58;;;;;;;6.45;2.80;;;17.00;99.90;;;;;;5077634;28;20065;-74
2022/09/22 11:01:59;;;;;;;6.43;2.60;;;17.10;99.90;;;;;;5102223;28;20434;-73
2022/09/22 11:04:52;;;;;;;5.80;1.88;;;17.20;99.90;;;;;;5109010;28;20081;-73
2022/09/22 11:14:09;;;;;;;5.18;2.15;;;16.80;99.90;;;;;;5105602;28;20449;-74
2022/09/22 11:17:00;;;;;;;5.15;2.45;;;17.10;99.90;;;;;;5097499;28;20467;-73
2022/09/22 11:19:39;;;;;;;8.07;2.70;;;17.30;99.90;;;;;;5094234;28;20036;-74
2022/09/22 11:22:28;;;;;;;6.43;2.80;;;17.30;99.90;;;;;;5094990;28;20493;-74
2022/09/22 11:25:18;;;;;;;8.55;3.45;;;17.50;99.90;;;;;;5098528;28;20084;-74
2022/09/22 11:28:16;;;;;;;5.78;3.08;;;17.80;99.90;;;;;;5097663;28;20074;-74
2022/09/22 11:30:49;;;;;;;4.35;3.10;;;18.00;99.90;;;;;;5101658;28;20043;-74
2022/09/22 11:33:27;;;;;;;4.90;2.70;;;17.90;99.90;;;;;;5100210;28;20164;-74
2022/09/22 11:36:13;;;;;;;6.50;2.90;;;17.70;99.90;;;;;;5098106;28;20442;-74
2022/09/22 11:39:01;;;;;;;6.40;3.30;;;17.60;99.90;;;;;;5101596;28;20040;-74
2022/09/22 11:41:42;;;;;;;7.85;3.80;;;17.40;99.90;;;;;;5106320;28;20424;-77
2022/09/22 11:44:26;;;;;;;6.90;3.53;;;17.20;99.90;;;;;;5093904;28;20044;-75
2022/09/22 11:47:18;;;;;;;8.13;4.00;;;17.40;99.90;;;;;;5093570;28;20092;-77
2022/09/22 11:50:03;;;;;;;7.63;4.13;;;17.30;99.90;;;;;;5098812;28;20043;-76
2022/09/22 11:53:02;;;;;;;7.13;4.07;;;17.20;99.90;;;;;;5111891;28;20063;-77
2022/09/22 11:55:35;;;;;;;9.20;4.03;;;17.30;99.90;;;;;;5107559;28;20104;-76
2022/09/22 11:58:08;;;;;;;6.97;4.00;;;17.60;99.90;;;;;;5121148;27;20043;-77
2022/09/22 12:00:53;;;;;;;4.72;3.45;;;17.70;99.90;;;;;;5113553;28;20069;-75
2022/09/22 12:03:25;;;;;;;6.97;3.70;;;17.60;99.90;;;;;;5103563;28;20504;-74
2022/09/22 12:05:55;;;;;;;6.38;3.53;;;17.50;99.90;;;;;;5109781;28;20168;-74
2022/09/22 12:08:24;;;;;;;5.95;3.67;;;17.30;99.90;;;;;;5103892;28;20039;-73
2022/09/22 12:10:50;;;;;;;6.72;3.85;;;17.10;99.90;;;;;;5108875;28;20044;-75
2022/09/22 12:13:24;;;;;;;6.72;3.53;;;17.20;99.90;;;;;;5099570;28;20097;-75
2022/09/22 12:16:11;;;;;;;4.93;3.97;;;17.20;99.90;;;;;;5103646;28;20109;-74
2022/09/22 12:18:52;;;;;;;5.57;3.65;;;17.30;99.90;;;;;;5107900;28;20047;-75
2022/09/22 12:21:42;;;;;;;7.93;3.58;;;17.20;99.90;;;;;;5106961;28;20100;-72
2022/09/22 12:24:10;;;;;;;5.40;3.80;;;17.10;99.90;;;;;;5088617;28;20572;-74
2022/09/22 12:26:38;;;;;;;5.28;3.90;;;17.10;99.90;;;;;;5103791;28;20051;-74
2022/09/22 12:29:15;;;;;;;6.07;3.80;;;17.20;99.90;;;;;;5113262;28;20377;-74
2022/09/22 12:31:49;;;;;;;5.47;3.80;;;17.70;99.90;;;;;;5107567;28;20054;-74
2022/09/22 12:34:38;;;;;;;8.20;3.50;;;18.30;99.90;;;;;;5110264;28;20057;-74
2022/09/22 12:37:10;;;;;;;7.18;3.40;;;18.90;99.90;;;;;;5096015;28;20032;-74
2022/09/22 12:39:42;;;;;;;5.07;3.30;;;19.10;99.90;;;;;;5109629;28;20080;-73
2022/09/22 12:42:23;;;;;;;6.38;3.83;;;19.00;99.90;;;;;;5107991;28;20129;-74
2022/09/22 12:44:57;;;;;;;6.93;3.30;;;18.70;98.20;;;;;;5093060;28;20559;-73
2022/09/22 12:47:33;;;;;;;6.25;3.67;;;18.50;99.90;;;;;;5096399;28;20071;-74
2022/09/22 12:50:06;;;;;;;4.45;3.10;;;18.30;99.90;;;;;;5083098;28;20100;-74
2022/09/22 12:52:40;;;;;;;7.47;3.53;;;18.20;99.90;;;;;;5104564;28;20105;-73
2022/09/22 12:55:28;;;;;;;7.00;3.75;;;18.10;99.90;;;;;;5095032;28;20082;-73
2022/09/22 12:57:59;;;;;;;6.70;4.00;;;18.10;99.90;;;;;;5095827;28;21747;-73
2022/09/22 13:00:39;;;;;;;10.82;3.78;;;18.50;99.90;;;;;;5094976;28;20036;-73
2022/09/22 13:03:23;;;;;;;6.25;4.20;;;19.00;99.90;;;;;;5101751;28;20032;-73
2022/09/22 13:05:55;;;;;;;6.60;3.22;;;19.40;99.90;;;;;;5104167;28;20035;-74
2022/09/22 13:08:29;;;;;;;6.30;3.60;;;19.60;99.50;;;;;;5097308;28;20040;-72
2022/09/22 13:11:21;;;;;;;4.90;2.92;;;19.90;99.00;;;;;;5100286;28;20059;-74
2022/09/22 13:13:49;;;;;;;8.32;4.20;;;20.00;99.10;;;;;;5096245;28;20063;-72
2022/09/22 13:16:14;;;;;;;5.20;3.95;;;19.90;98.10;;;;;;5107557;28;20043;-72
2022/09/22 13:18:55;;;;;;;7.97;3.90;;;19.70;97.40;;;;;;5102193;28;20031;-71
2022/09/22 13:21:32;;;;;;;8.30;3.80;;;19.50;96.90;;;;;;5107341;28;20397;-73
2022/09/22 13:24:02;;;;;;;10.07;4.10;;;19.30;96.80;;;;;;5098470;28;20557;-74
2022/09/22 13:26:36;;;;;;;8.63;3.45;;;19.30;97.10;;;;;;5101030;28;20040;-73
2022/09/22 13:29:09;;;;;;;6.40;3.50;;;19.70;97.50;;;;;;5105774;28;20040;-73
2022/09/22 13:31:37;;;;;;;7.47;3.33;;;19.90;97.20;;;;;;5089643;28;20051;-74
2022/09/22 13:34:25;;;;;;;5.18;3.22;;;19.80;96.70;;;;;;5089604;28;20085;-72